sensor_id;sensor_type;location;lat;lon;timestamp;P1;durP1;ratioP1;P2;durP2;ratioP2
11663;SDS011;72375;59.302;18.204;2024-02-21T00:01:58;2.73;;;2.10;;
11663;SDS011;72375;59.302;18.204;2024-02-21T00:04:45;1.90;;;1.70;;
11663;SDS011;72375;59.302;18.204;2024-02-21T00:07:31;2.33;;;1.73;;
11663;SDS011;72375;59.302;18.204;2024-02-21T00:10:16;2.50;;;2.20;;
11663;SDS011;72375;59.302;18.204;2024-02-21T00:13:02;2.20;;;2.00;;
11663;SDS011;72375;59.302;18.204;2024-02-21T00:15:48;2.93;;;1.90;;
11663;SDS011;72375;59.302;18.204;2024-02-21T00:18:33;2.80;;;2.13;;
11663;SDS011;72375;59.302;18.204;2024-02-21T00:21:20;2.20;;;1.97;;
11663;SDS011;72375;59.302;18.204;2024-02-21T00:24:06;2.37;;;2.03;;
11663;SDS011;72375;59.302;18.204;2024-02-21T00:26:53;2.47;;;1.90;;
11663;SDS011;72375;59.302;18.204;2024-02-21T00:29:39;3.23;;;1.93;;
11663;SDS011;72375;59.302;18.204;2024-02-21T00:32:24;2.67;;;2.20;;
11663;SDS011;72375;59.302;18.204;2024-02-21T00:35:10;2.40;;;1.90;;
11663;SDS011;72375;59.302;18.204;2024-02-21T00:37:57;2.33;;;2.13;;
11663;SDS011;72375;59.302;18.204;2024-02-21T00:40:43;2.70;;;2.30;;
11663;SDS011;72375;59.302;18.204;2024-02-21T00:43:29;2.60;;;2.10;;
11663;SDS011;72375;59.302;18.204;2024-02-21T00:46:14;3.10;;;2.20;;
11663;SDS011;72375;59.302;18.204;2024-02-21T00:49:00;2.47;;;2.10;;
11663;SDS011;72375;59.302;18.204;2024-02-21T00:51:47;2.50;;;2.30;;
11663;SDS011;72375;59.302;18.204;2024-02-21T00:54:34;1.73;;;1.50;;
11663;SDS011;72375;59.302;18.204;2024-02-21T00:57:19;2.93;;;2.00;;
11663;SDS011;72375;59.302;18.204;2024-02-21T01:00:05;3.07;;;2.03;;
11663;SDS011;72375;59.302;18.204;2024-02-21T01:02:51;3.60;;;1.70;;
11663;SDS011;72375;59.302;18.204;2024-02-21T01:05:37;2.10;;;1.60;;
11663;SDS011;72375;59.302;18.204;2024-02-21T01:08:23;2.40;;;1.63;;
11663;SDS011;72375;59.302;18.204;2024-02-21T01:11:10;2.83;;;1.73;;
11663;SDS011;72375;59.302;18.204;2024-02-21T01:13:55;1.80;;;1.60;;
11663;SDS011;72375;59.302;18.204;2024-02-21T01:16:41;1.77;;;1.37;;
11663;SDS011;72375;59.302;18.204;2024-02-21T01:19:27;1.90;;;1.20;;
11663;SDS011;72375;59.302;18.204;2024-02-21T01:22:13;2.93;;;1.80;;
11663;SDS011;72375;59.302;18.204;2024-02-21T01:24:59;2.00;;;1.33;;
11663;SDS011;72375;59.302;18.204;2024-02-21T01:27:46;2.00;;;1.43;;
11663;SDS011;72375;59.302;18.204;2024-02-21T01:30:32;2.40;;;1.80;;
11663;SDS011;72375;59.302;18.204;2024-02-21T01:33:17;1.40;;;1.30;;
11663;SDS011;72375;59.302;18.204;2024-02-21T01:36:03;3.03;;;1.50;;
11663;SDS011;72375;59.302;18.204;2024-02-21T01:38:50;2.67;;;1.80;;
11663;SDS011;72375;59.302;18.204;2024-02-21T01:41:36;2.50;;;1.60;;
11663;SDS011;72375;59.302;18.204;2024-02-21T01:44:23;2.50;;;2.00;;
11663;SDS011;72375;59.302;18.204;2024-02-21T01:47:09;2.60;;;1.87;;
11663;SDS011;72375;59.302;18.204;2024-02-21T01:49:57;3.10;;;1.87;;
11663;SDS011;72375;59.302;18.204;2024-02-21T01:52:42;2.27;;;1.50;;
11663;SDS011;72375;59.302;18.204;2024-02-21T01:55:31;2.37;;;1.67;;
11663;SDS011;72375;59.302;18.204;2024-02-21T01:58:17;2.30;;;1.37;;
11663;SDS011;72375;59.302;18.204;2024-02-21T02:01:06;2.97;;;1.70;;
11663;SDS011;72375;59.302;18.204;2024-02-21T02:03:52;1.60;;;1.50;;
11663;SDS011;72375;59.302;18.204;2024-02-21T02:06:38;1.90;;;1.60;;
11663;SDS011;72375;59.302;18.204;2024-02-21T02:09:24;2.23;;;1.93;;
11663;SDS011;72375;59.302;18.204;2024-02-21T02:12:10;2.17;;;1.93;;
11663;SDS011;72375;59.302;18.204;2024-02-21T02:14:58;1.97;;;1.63;;
11663;SDS011;72375;59.302;18.204;2024-02-21T02:17:46;2.87;;;2.27;;
11663;SDS011;72375;59.302;18.204;2024-02-21T02:20:32;2.77;;;2.13;;
11663;SDS011;72375;59.302;18.204;2024-02-21T02:23:21;3.40;;;2.70;;
11663;SDS011;72375;59.302;18.204;2024-02-21T02:26:08;2.83;;;2.50;;
11663;SDS011;72375;59.302;18.204;2024-02-21T02:28:53;4.10;;;2.67;;
11663;SDS011;72375;59.302;18.204;2024-02-21T02:31:39;3.20;;;2.60;;
11663;SDS011;72375;59.302;18.204;2024-02-21T02:34:25;3.63;;;2.63;;
11663;SDS011;72375;59.302;18.204;2024-02-21T02:37:11;3.53;;;2.80;;
11663;SDS011;72375;59.302;18.204;2024-02-21T02:39:58;4.73;;;2.93;;
11663;SDS011;72375;59.302;18.204;2024-02-21T02:42:43;3.10;;;2.70;;
11663;SDS011;72375;59.302;18.204;2024-02-21T02:45:29;3.83;;;2.53;;
11663;SDS011;72375;59.302;18.204;2024-02-21T02:48:15;2.80;;;2.43;;
11663;SDS011;72375;59.302;18.204;2024-02-21T02:51:01;3.50;;;2.93;;
11663;SDS011;72375;59.302;18.204;2024-02-21T02:53:46;3.60;;;2.90;;
11663;SDS011;72375;59.302;18.204;2024-02-21T02:56:33;3.00;;;2.60;;
11663;SDS011;72375;59.302;18.204;2024-02-21T02:59:19;3.20;;;2.60;;
11663;SDS011;72375;59.302;18.204;2024-02-21T03:02:05;4.00;;;2.60;;
11663;SDS011;72375;59.302;18.204;2024-02-21T03:04:51;3.70;;;2.70;;
11663;SDS011;72375;59.302;18.204;2024-02-21T03:07:37;3.27;;;2.20;;
11663;SDS011;72375;59.302;18.204;2024-02-21T03:10:23;2.70;;;2.30;;
11663;SDS011;72375;59.302;18.204;2024-02-21T03:13:09;2.73;;;1.93;;
11663;SDS011;72375;59.302;18.204;2024-02-21T03:15:55;2.03;;;1.80;;
11663;SDS011;72375;59.302;18.204;2024-02-21T03:18:41;1.97;;;1.73;;
11663;SDS011;72375;59.302;18.204;2024-02-21T03:21:27;2.20;;;1.53;;
11663;SDS011;72375;59.302;18.204;2024-02-21T03:24:12;1.77;;;1.50;;
11663;SDS011;72375;59.302;18.204;2024-02-21T03:26:58;3.37;;;1.83;;
11663;SDS011;72375;59.302;18.204;2024-02-21T03:29:45;2.30;;;1.57;;
11663;SDS011;72375;59.302;18.204;2024-02-21T03:32:30;2.70;;;1.53;;
11663;SDS011;72375;59.302;18.204;2024-02-21T03:35:16;1.40;;;1.30;;
11663;SDS011;72375;59.302;18.204;2024-02-21T03:38:02;2.77;;;1.63;;
11663;SDS011;72375;59.302;18.204;2024-02-21T03:40:48;2.10;;;1.50;;
11663;SDS011;72375;59.302;18.204;2024-02-21T03:43:33;1.73;;;1.63;;
11663;SDS011;72375;59.302;18.204;2024-02-21T03:46:20;3.07;;;1.53;;
11663;SDS011;72375;59.302;18.204;2024-02-21T03:49:06;4.33;;;1.40;;
11663;SDS011;72375;59.302;18.204;2024-02-21T03:51:52;1.40;;;1.30;;
11663;SDS011;72375;59.302;18.204;2024-02-21T03:54:39;1.60;;;1.20;;
11663;SDS011;72375;59.302;18.204;2024-02-21T03:57:25;1.40;;;1.00;;
11663;SDS011;72375;59.302;18.204;2024-02-21T04:00:11;1.60;;;1.10;;
11663;SDS011;72375;59.302;18.204;2024-02-21T04:02:58;1.23;;;1.00;;
11663;SDS011;72375;59.302;18.204;2024-02-21T04:05:44;1.20;;;1.10;;
11663;SDS011;72375;59.302;18.204;2024-02-21T04:08:29;1.53;;;1.30;;
11663;SDS011;72375;59.302;18.204;2024-02-21T04:11:15;2.27;;;1.10;;
11663;SDS011;72375;59.302;18.204;2024-02-21T04:14:00;2.73;;;0.90;;
11663;SDS011;72375;59.302;18.204;2024-02-21T04:16:46;1.10;;;0.93;;
11663;SDS011;72375;59.302;18.204;2024-02-21T04:19:33;0.90;;;0.90;;
11663;SDS011;72375;59.302;18.204;2024-02-21T04:22:19;1.83;;;1.00;;
11663;SDS011;72375;59.302;18.204;2024-02-21T04:25:05;2.30;;;0.90;;
11663;SDS011;72375;59.302;18.204;2024-02-21T04:27:51;1.10;;;1.00;;
11663;SDS011;72375;59.302;18.204;2024-02-21T04:30:36;1.03;;;0.90;;
11663;SDS011;72375;59.302;18.204;2024-02-21T04:33:22;1.00;;;0.80;;
11663;SDS011;72375;59.302;18.204;2024-02-21T04:36:09;0.97;;;0.80;;
11663;SDS011;72375;59.302;18.204;2024-02-21T04:38:55;1.37;;;0.80;;
11663;SDS011;72375;59.302;18.204;2024-02-21T04:41:41;1.00;;;0.83;;
11663;SDS011;72375;59.302;18.204;2024-02-21T04:44:26;1.43;;;0.60;;
11663;SDS011;72375;59.302;18.204;2024-02-21T04:47:12;1.10;;;0.90;;
11663;SDS011;72375;59.302;18.204;2024-02-21T04:49:58;1.10;;;0.90;;
11663;SDS011;72375;59.302;18.204;2024-02-21T04:52:45;1.33;;;0.77;;
11663;SDS011;72375;59.302;18.204;2024-02-21T04:55:31;1.00;;;0.70;;
11663;SDS011;72375;59.302;18.204;2024-02-21T04:58:16;1.63;;;0.80;;
11663;SDS011;72375;59.302;18.204;2024-02-21T05:01:02;0.90;;;0.80;;
11663;SDS011;72375;59.302;18.204;2024-02-21T05:03:48;0.73;;;0.60;;
11663;SDS011;72375;59.302;18.204;2024-02-21T05:06:36;0.80;;;0.73;;
11663;SDS011;72375;59.302;18.204;2024-02-21T05:09:23;1.23;;;0.83;;
11663;SDS011;72375;59.302;18.204;2024-02-21T05:12:09;3.33;;;1.10;;
11663;SDS011;72375;59.302;18.204;2024-02-21T05:14:54;2.67;;;1.00;;
11663;SDS011;72375;59.302;18.204;2024-02-21T05:17:40;2.00;;;1.13;;
11663;SDS011;72375;59.302;18.204;2024-02-21T05:20:26;2.67;;;1.00;;
11663;SDS011;72375;59.302;18.204;2024-02-21T05:23:12;1.50;;;1.00;;
11663;SDS011;72375;59.302;18.204;2024-02-21T05:25:59;1.63;;;1.10;;
11663;SDS011;72375;59.302;18.204;2024-02-21T05:28:44;2.33;;;1.00;;
11663;SDS011;72375;59.302;18.204;2024-02-21T05:31:42;1.43;;;1.07;;
11663;SDS011;72375;59.302;18.204;2024-02-21T05:34:39;1.10;;;0.97;;
11663;SDS011;72375;59.302;18.204;2024-02-21T05:37:25;2.20;;;1.20;;
11663;SDS011;72375;59.302;18.204;2024-02-21T05:40:11;2.50;;;1.13;;
11663;SDS011;72375;59.302;18.204;2024-02-21T05:42:58;2.00;;;1.10;;
11663;SDS011;72375;59.302;18.204;2024-02-21T05:45:43;1.50;;;0.97;;
11663;SDS011;72375;59.302;18.204;2024-02-21T05:48:29;1.20;;;0.90;;
11663;SDS011;72375;59.302;18.204;2024-02-21T05:51:15;3.00;;;1.23;;
11663;SDS011;72375;59.302;18.204;2024-02-21T05:54:01;1.23;;;1.00;;
11663;SDS011;72375;59.302;18.204;2024-02-21T05:56:47;1.53;;;0.87;;
11663;SDS011;72375;59.302;18.204;2024-02-21T05:59:34;3.67;;;1.10;;
11663;SDS011;72375;59.302;18.204;2024-02-21T06:02:23;1.47;;;1.30;;
11663;SDS011;72375;59.302;18.204;2024-02-21T06:05:09;3.43;;;1.13;;
11663;SDS011;72375;59.302;18.204;2024-02-21T06:07:55;3.50;;;1.20;;
11663;SDS011;72375;59.302;18.204;2024-02-21T06:10:40;3.23;;;1.13;;
11663;SDS011;72375;59.302;18.204;2024-02-21T06:13:26;1.90;;;1.23;;
11663;SDS011;72375;59.302;18.204;2024-02-21T06:16:13;3.10;;;1.20;;
11663;SDS011;72375;59.302;18.204;2024-02-21T06:18:58;1.57;;;1.07;;
11663;SDS011;72375;59.302;18.204;2024-02-21T06:21:44;1.50;;;1.30;;
11663;SDS011;72375;59.302;18.204;2024-02-21T06:24:30;1.77;;;1.33;;
11663;SDS011;72375;59.302;18.204;2024-02-21T06:27:15;1.60;;;1.10;;
11663;SDS011;72375;59.302;18.204;2024-02-21T06:30:02;2.20;;;1.30;;
11663;SDS011;72375;59.302;18.204;2024-02-21T06:32:49;2.80;;;1.40;;
11663;SDS011;72375;59.302;18.204;2024-02-21T06:35:34;1.83;;;1.10;;
11663;SDS011;72375;59.302;18.204;2024-02-21T06:38:21;3.00;;;1.77;;
11663;SDS011;72375;59.302;18.204;2024-02-21T06:41:14;2.10;;;1.30;;
11663;SDS011;72375;59.302;18.204;2024-02-21T06:44:00;2.77;;;1.50;;
11663;SDS011;72375;59.302;18.204;2024-02-21T06:46:46;3.97;;;1.37;;
11663;SDS011;72375;59.302;18.204;2024-02-21T06:49:33;2.80;;;1.60;;
11663;SDS011;72375;59.302;18.204;2024-02-21T06:52:20;2.43;;;1.40;;
11663;SDS011;72375;59.302;18.204;2024-02-21T06:55:07;5.27;;;2.20;;
11663;SDS011;72375;59.302;18.204;2024-02-21T06:57:53;2.80;;;1.37;;
11663;SDS011;72375;59.302;18.204;2024-02-21T07:00:39;3.43;;;1.47;;
11663;SDS011;72375;59.302;18.204;2024-02-21T07:03:24;2.13;;;1.33;;
11663;SDS011;72375;59.302;18.204;2024-02-21T07:06:11;1.83;;;1.30;;
11663;SDS011;72375;59.302;18.204;2024-02-21T07:08:57;4.17;;;1.77;;
11663;SDS011;72375;59.302;18.204;2024-02-21T07:11:43;1.93;;;1.17;;
11663;SDS011;72375;59.302;18.204;2024-02-21T07:14:29;3.47;;;1.27;;
11663;SDS011;72375;59.302;18.204;2024-02-21T07:17:14;4.63;;;1.70;;
11663;SDS011;72375;59.302;18.204;2024-02-21T07:20:00;3.30;;;1.90;;
11663;SDS011;72375;59.302;18.204;2024-02-21T07:22:47;3.03;;;2.03;;
11663;SDS011;72375;59.302;18.204;2024-02-21T07:25:33;2.07;;;1.50;;
11663;SDS011;72375;59.302;18.204;2024-02-21T07:28:18;3.23;;;1.77;;
11663;SDS011;72375;59.302;18.204;2024-02-21T07:31:04;3.57;;;1.70;;
11663;SDS011;72375;59.302;18.204;2024-02-21T07:33:50;2.23;;;1.63;;
11663;SDS011;72375;59.302;18.204;2024-02-21T07:36:36;4.73;;;1.90;;
11663;SDS011;72375;59.302;18.204;2024-02-21T07:39:23;1.40;;;1.30;;
11663;SDS011;72375;59.302;18.204;2024-02-21T07:42:09;2.10;;;1.53;;
11663;SDS011;72375;59.302;18.204;2024-02-21T07:44:55;2.20;;;1.60;;
11663;SDS011;72375;59.302;18.204;2024-02-21T07:47:41;1.47;;;1.33;;
11663;SDS011;72375;59.302;18.204;2024-02-21T07:50:26;3.80;;;1.70;;
11663;SDS011;72375;59.302;18.204;2024-02-21T07:53:12;3.20;;;1.50;;
11663;SDS011;72375;59.302;18.204;2024-02-21T07:55:59;3.17;;;1.60;;
11663;SDS011;72375;59.302;18.204;2024-02-21T07:58:44;4.43;;;1.77;;
11663;SDS011;72375;59.302;18.204;2024-02-21T08:01:30;2.40;;;1.53;;
11663;SDS011;72375;59.302;18.204;2024-02-21T08:04:16;1.80;;;1.43;;
11663;SDS011;72375;59.302;18.204;2024-02-21T08:07:02;3.00;;;2.10;;
11663;SDS011;72375;59.302;18.204;2024-02-21T08:09:47;2.67;;;1.70;;
11663;SDS011;72375;59.302;18.204;2024-02-21T08:12:34;2.60;;;1.60;;
11663;SDS011;72375;59.302;18.204;2024-02-21T08:15:20;4.37;;;1.93;;
11663;SDS011;72375;59.302;18.204;2024-02-21T08:18:09;2.70;;;1.93;;
11663;SDS011;72375;59.302;18.204;2024-02-21T08:20:54;5.03;;;1.70;;
11663;SDS011;72375;59.302;18.204;2024-02-21T08:23:40;2.77;;;1.53;;
11663;SDS011;72375;59.302;18.204;2024-02-21T08:26:26;4.63;;;1.70;;
11663;SDS011;72375;59.302;18.204;2024-02-21T08:29:15;4.77;;;1.70;;
11663;SDS011;72375;59.302;18.204;2024-02-21T08:32:00;2.33;;;1.60;;
11663;SDS011;72375;59.302;18.204;2024-02-21T08:34:46;3.87;;;1.63;;
11663;SDS011;72375;59.302;18.204;2024-02-21T08:37:31;2.60;;;1.30;;
11663;SDS011;72375;59.302;18.204;2024-02-21T08:40:17;3.33;;;1.70;;
11663;SDS011;72375;59.302;18.204;2024-02-21T08:43:04;3.53;;;1.90;;
11663;SDS011;72375;59.302;18.204;2024-02-21T08:45:51;3.60;;;1.90;;
11663;SDS011;72375;59.302;18.204;2024-02-21T08:48:37;3.67;;;1.83;;
11663;SDS011;72375;59.302;18.204;2024-02-21T08:51:22;2.23;;;1.50;;
11663;SDS011;72375;59.302;18.204;2024-02-21T08:54:08;2.40;;;1.63;;
11663;SDS011;72375;59.302;18.204;2024-02-21T08:56:54;3.00;;;1.80;;
11663;SDS011;72375;59.302;18.204;2024-02-21T08:59:40;3.73;;;1.90;;
11663;SDS011;72375;59.302;18.204;2024-02-21T09:02:27;3.83;;;2.07;;
11663;SDS011;72375;59.302;18.204;2024-02-21T09:05:13;3.97;;;1.80;;
11663;SDS011;72375;59.302;18.204;2024-02-21T09:07:59;7.13;;;2.50;;
11663;SDS011;72375;59.302;18.204;2024-02-21T09:10:45;3.23;;;1.73;;
11663;SDS011;72375;59.302;18.204;2024-02-21T09:13:30;3.77;;;1.83;;
11663;SDS011;72375;59.302;18.204;2024-02-21T09:16:16;5.77;;;1.87;;
11663;SDS011;72375;59.302;18.204;2024-02-21T09:19:03;5.23;;;2.07;;
11663;SDS011;72375;59.302;18.204;2024-02-21T09:21:49;4.63;;;1.73;;
11663;SDS011;72375;59.302;18.204;2024-02-21T09:24:35;2.20;;;1.47;;
11663;SDS011;72375;59.302;18.204;2024-02-21T09:27:20;3.60;;;1.50;;
11663;SDS011;72375;59.302;18.204;2024-02-21T09:30:06;3.80;;;1.83;;
11663;SDS011;72375;59.302;18.204;2024-02-21T09:32:52;1.80;;;1.50;;
11663;SDS011;72375;59.302;18.204;2024-02-21T09:35:39;4.73;;;1.80;;
11663;SDS011;72375;59.302;18.204;2024-02-21T09:38:25;2.63;;;1.67;;
11663;SDS011;72375;59.302;18.204;2024-02-21T09:41:15;4.07;;;1.50;;
11663;SDS011;72375;59.302;18.204;2024-02-21T09:44:02;2.73;;;1.70;;
11663;SDS011;72375;59.302;18.204;2024-02-21T09:46:50;2.73;;;1.30;;
11663;SDS011;72375;59.302;18.204;2024-02-21T09:49:40;1.93;;;1.10;;
11663;SDS011;72375;59.302;18.204;2024-02-21T09:52:28;3.13;;;1.53;;
11663;SDS011;72375;59.302;18.204;2024-02-21T09:55:13;1.63;;;1.30;;
11663;SDS011;72375;59.302;18.204;2024-02-21T09:58:01;2.17;;;1.80;;
11663;SDS011;72375;59.302;18.204;2024-02-21T10:00:47;3.47;;;1.77;;
11663;SDS011;72375;59.302;18.204;2024-02-21T10:03:33;2.83;;;1.30;;
11663;SDS011;72375;59.302;18.204;2024-02-21T10:06:19;1.53;;;1.40;;
11663;SDS011;72375;59.302;18.204;2024-02-21T10:09:06;2.20;;;1.63;;
11663;SDS011;72375;59.302;18.204;2024-02-21T10:11:52;3.10;;;1.87;;
11663;SDS011;72375;59.302;18.204;2024-02-21T10:14:38;3.10;;;1.33;;
11663;SDS011;72375;59.302;18.204;2024-02-21T10:17:23;3.20;;;1.33;;
11663;SDS011;72375;59.302;18.204;2024-02-21T10:20:09;2.33;;;1.40;;
11663;SDS011;72375;59.302;18.204;2024-02-21T10:23:03;4.27;;;1.50;;
11663;SDS011;72375;59.302;18.204;2024-02-21T10:25:53;2.97;;;1.37;;
11663;SDS011;72375;59.302;18.204;2024-02-21T10:28:39;3.23;;;1.70;;
11663;SDS011;72375;59.302;18.204;2024-02-21T10:31:26;2.33;;;1.47;;
11663;SDS011;72375;59.302;18.204;2024-02-21T10:34:12;2.87;;;1.50;;
11663;SDS011;72375;59.302;18.204;2024-02-21T10:37:02;2.30;;;1.47;;
11663;SDS011;72375;59.302;18.204;2024-02-21T10:39:48;2.10;;;1.60;;
11663;SDS011;72375;59.302;18.204;2024-02-21T10:42:36;1.97;;;1.40;;
11663;SDS011;72375;59.302;18.204;2024-02-21T10:45:23;2.40;;;1.53;;
11663;SDS011;72375;59.302;18.204;2024-02-21T10:48:15;1.67;;;1.20;;
11663;SDS011;72375;59.302;18.204;2024-02-21T10:51:01;1.40;;;1.30;;
11663;SDS011;72375;59.302;18.204;2024-02-21T10:53:54;2.17;;;1.53;;
11663;SDS011;72375;59.302;18.204;2024-02-21T10:56:47;2.63;;;1.10;;
11663;SDS011;72375;59.302;18.204;2024-02-21T10:59:36;1.50;;;1.10;;
11663;SDS011;72375;59.302;18.204;2024-02-21T11:02:24;1.43;;;1.07;;
11663;SDS011;72375;59.302;18.204;2024-02-21T11:05:12;1.73;;;1.30;;
11663;SDS011;72375;59.302;18.204;2024-02-21T11:07:58;1.83;;;1.23;;
11663;SDS011;72375;59.302;18.204;2024-02-21T11:10:45;1.67;;;1.10;;
11663;SDS011;72375;59.302;18.204;2024-02-21T11:13:31;2.67;;;1.03;;
11663;SDS011;72375;59.302;18.204;2024-02-21T11:16:22;3.10;;;1.13;;
11663;SDS011;72375;59.302;18.204;2024-02-21T11:19:08;1.43;;;1.00;;
11663;SDS011;72375;59.302;18.204;2024-02-21T11:21:56;1.77;;;1.20;;
11663;SDS011;72375;59.302;18.204;2024-02-21T11:24:42;0.90;;;0.90;;
11663;SDS011;72375;59.302;18.204;2024-02-21T11:27:27;2.23;;;1.10;;
11663;SDS011;72375;59.302;18.204;2024-02-21T11:30:18;1.83;;;1.07;;
11663;SDS011;72375;59.302;18.204;2024-02-21T11:33:13;1.63;;;1.10;;
11663;SDS011;72375;59.302;18.204;2024-02-21T11:35:59;3.33;;;1.40;;
11663;SDS011;72375;59.302;18.204;2024-02-21T11:38:44;1.70;;;1.20;;
11663;SDS011;72375;59.302;18.204;2024-02-21T11:41:30;2.37;;;1.40;;
11663;SDS011;72375;59.302;18.204;2024-02-21T11:44:16;2.70;;;1.40;;
11663;SDS011;72375;59.302;18.204;2024-02-21T11:47:02;2.27;;;1.20;;
11663;SDS011;72375;59.302;18.204;2024-02-21T11:49:49;1.73;;;1.40;;
11663;SDS011;72375;59.302;18.204;2024-02-21T11:52:37;2.37;;;1.30;;
11663;SDS011;72375;59.302;18.204;2024-02-21T11:55:23;2.00;;;1.27;;
11663;SDS011;72375;59.302;18.204;2024-02-21T11:58:09;1.80;;;1.50;;
11663;SDS011;72375;59.302;18.204;2024-02-21T12:00:54;2.23;;;1.40;;
11663;SDS011;72375;59.302;18.204;2024-02-21T12:03:40;2.40;;;1.50;;
11663;SDS011;72375;59.302;18.204;2024-02-21T12:06:34;1.83;;;1.53;;
11663;SDS011;72375;59.302;18.204;2024-02-21T12:09:19;2.40;;;1.70;;
11663;SDS011;72375;59.302;18.204;2024-02-21T12:12:07;1.83;;;1.33;;
11663;SDS011;72375;59.302;18.204;2024-02-21T12:14:54;2.73;;;1.70;;
11663;SDS011;72375;59.302;18.204;2024-02-21T12:17:41;2.20;;;1.70;;
11663;SDS011;72375;59.302;18.204;2024-02-21T12:20:27;2.00;;;1.57;;
11663;SDS011;72375;59.302;18.204;2024-02-21T12:23:14;1.87;;;1.57;;
11663;SDS011;72375;59.302;18.204;2024-02-21T12:26:00;2.80;;;1.67;;
11663;SDS011;72375;59.302;18.204;2024-02-21T12:28:46;2.33;;;1.57;;
11663;SDS011;72375;59.302;18.204;2024-02-21T12:31:32;2.20;;;1.70;;
11663;SDS011;72375;59.302;18.204;2024-02-21T12:34:18;2.23;;;1.70;;
11663;SDS011;72375;59.302;18.204;2024-02-21T12:37:03;3.37;;;1.70;;
11663;SDS011;72375;59.302;18.204;2024-02-21T12:39:50;2.33;;;1.97;;
11663;SDS011;72375;59.302;18.204;2024-02-21T12:42:36;3.03;;;1.53;;
11663;SDS011;72375;59.302;18.204;2024-02-21T12:45:21;1.90;;;1.70;;
11663;SDS011;72375;59.302;18.204;2024-02-21T12:48:07;3.20;;;1.80;;
11663;SDS011;72375;59.302;18.204;2024-02-21T12:51:06;1.50;;;1.40;;
11663;SDS011;72375;59.302;18.204;2024-02-21T12:53:52;2.00;;;1.60;;
11663;SDS011;72375;59.302;18.204;2024-02-21T12:56:39;2.33;;;1.80;;
11663;SDS011;72375;59.302;18.204;2024-02-21T12:59:25;2.50;;;1.70;;
11663;SDS011;72375;59.302;18.204;2024-02-21T13:02:12;2.00;;;1.60;;
11663;SDS011;72375;59.302;18.204;2024-02-21T13:04:57;2.40;;;1.70;;
11663;SDS011;72375;59.302;18.204;2024-02-21T13:07:44;1.90;;;1.50;;
11663;SDS011;72375;59.302;18.204;2024-02-21T13:10:29;1.57;;;1.30;;
11663;SDS011;72375;59.302;18.204;2024-02-21T13:13:16;3.30;;;1.70;;
11663;SDS011;72375;59.302;18.204;2024-02-21T13:16:03;2.60;;;1.30;;
11663;SDS011;72375;59.302;18.204;2024-02-21T13:18:49;1.53;;;1.43;;
11663;SDS011;72375;59.302;18.204;2024-02-21T13:21:35;2.77;;;1.50;;
11663;SDS011;72375;59.302;18.204;2024-02-21T13:24:21;2.67;;;1.97;;
11663;SDS011;72375;59.302;18.204;2024-02-21T13:27:06;2.27;;;1.90;;
11663;SDS011;72375;59.302;18.204;2024-02-21T13:29:53;2.20;;;1.77;;
11663;SDS011;72375;59.302;18.204;2024-02-21T13:32:39;2.83;;;2.00;;
11663;SDS011;72375;59.302;18.204;2024-02-21T13:35:25;2.93;;;2.10;;
11663;SDS011;72375;59.302;18.204;2024-02-21T13:38:11;2.60;;;2.00;;
11663;SDS011;72375;59.302;18.204;2024-02-21T13:40:57;2.30;;;1.70;;
11663;SDS011;72375;59.302;18.204;2024-02-21T13:43:43;2.50;;;2.00;;
11663;SDS011;72375;59.302;18.204;2024-02-21T13:46:31;2.63;;;1.80;;
11663;SDS011;72375;59.302;18.204;2024-02-21T13:49:17;2.07;;;1.77;;
11663;SDS011;72375;59.302;18.204;2024-02-21T13:52:03;2.47;;;2.07;;
11663;SDS011;72375;59.302;18.204;2024-02-21T13:54:49;2.13;;;1.60;;
11663;SDS011;72375;59.302;18.204;2024-02-21T13:57:34;2.27;;;1.90;;
11663;SDS011;72375;59.302;18.204;2024-02-21T14:00:20;2.40;;;2.13;;
11663;SDS011;72375;59.302;18.204;2024-02-21T14:03:07;2.53;;;1.87;;
11663;SDS011;72375;59.302;18.204;2024-02-21T14:05:53;2.27;;;1.83;;
11663;SDS011;72375;59.302;18.204;2024-02-21T14:08:39;2.60;;;2.10;;
11663;SDS011;72375;59.302;18.204;2024-02-21T14:11:25;2.30;;;2.10;;
11663;SDS011;72375;59.302;18.204;2024-02-21T14:14:11;2.60;;;2.17;;
11663;SDS011;72375;59.302;18.204;2024-02-21T14:16:58;3.53;;;2.40;;
11663;SDS011;72375;59.302;18.204;2024-02-21T14:19:45;3.00;;;2.40;;
11663;SDS011;72375;59.302;18.204;2024-02-21T14:22:31;2.87;;;2.13;;
11663;SDS011;72375;59.302;18.204;2024-02-21T14:25:16;2.80;;;2.50;;
11663;SDS011;72375;59.302;18.204;2024-02-21T14:28:02;2.60;;;2.20;;
11663;SDS011;72375;59.302;18.204;2024-02-21T14:30:48;4.03;;;2.87;;
11663;SDS011;72375;59.302;18.204;2024-02-21T14:33:37;4.00;;;3.20;;
11663;SDS011;72375;59.302;18.204;2024-02-21T14:36:24;6.33;;;4.07;;
11663;SDS011;72375;59.302;18.204;2024-02-21T14:39:10;5.70;;;3.30;;
11663;SDS011;72375;59.302;18.204;2024-02-21T14:41:56;5.87;;;3.77;;
11663;SDS011;72375;59.302;18.204;2024-02-21T14:44:43;4.67;;;3.43;;
11663;SDS011;72375;59.302;18.204;2024-02-21T14:47:29;4.40;;;3.77;;
11663;SDS011;72375;59.302;18.204;2024-02-21T14:50:15;7.27;;;3.40;;
11663;SDS011;72375;59.302;18.204;2024-02-21T14:53:02;4.23;;;3.53;;
11663;SDS011;72375;59.302;18.204;2024-02-21T14:55:48;3.67;;;2.97;;
11663;SDS011;72375;59.302;18.204;2024-02-21T14:58:34;4.27;;;3.30;;
11663;SDS011;72375;59.302;18.204;2024-02-21T15:01:19;3.33;;;2.93;;
11663;SDS011;72375;59.302;18.204;2024-02-21T15:04:06;3.20;;;2.63;;
11663;SDS011;72375;59.302;18.204;2024-02-21T15:06:52;6.07;;;3.57;;
11663;SDS011;72375;59.302;18.204;2024-02-21T15:09:40;3.33;;;2.77;;
11663;SDS011;72375;59.302;18.204;2024-02-21T15:12:26;4.27;;;3.20;;
11663;SDS011;72375;59.302;18.204;2024-02-21T15:15:11;4.00;;;3.10;;
11663;SDS011;72375;59.302;18.204;2024-02-21T15:17:57;4.00;;;3.07;;
11663;SDS011;72375;59.302;18.204;2024-02-21T15:20:43;4.77;;;3.10;;
11663;SDS011;72375;59.302;18.204;2024-02-21T15:23:28;4.30;;;3.20;;
11663;SDS011;72375;59.302;18.204;2024-02-21T15:26:16;3.83;;;3.30;;
11663;SDS011;72375;59.302;18.204;2024-02-21T15:29:01;4.23;;;3.30;;
11663;SDS011;72375;59.302;18.204;2024-02-21T15:31:48;3.27;;;2.87;;
11663;SDS011;72375;59.302;18.204;2024-02-21T15:34:34;3.40;;;2.80;;
11663;SDS011;72375;59.302;18.204;2024-02-21T15:37:20;4.67;;;3.77;;
11663;SDS011;72375;59.302;18.204;2024-02-21T15:40:06;3.70;;;3.27;;
11663;SDS011;72375;59.302;18.204;2024-02-21T15:42:53;4.30;;;3.10;;
11663;SDS011;72375;59.302;18.204;2024-02-21T15:45:40;3.77;;;3.17;;
11663;SDS011;72375;59.302;18.204;2024-02-21T15:48:26;3.77;;;3.30;;
11663;SDS011;72375;59.302;18.204;2024-02-21T15:51:11;3.63;;;3.10;;
11663;SDS011;72375;59.302;18.204;2024-02-21T15:53:58;4.17;;;3.23;;
11663;SDS011;72375;59.302;18.204;2024-02-21T15:56:44;3.70;;;3.23;;
11663;SDS011;72375;59.302;18.204;2024-02-21T15:59:31;4.60;;;3.87;;
11663;SDS011;72375;59.302;18.204;2024-02-21T16:02:16;4.43;;;3.57;;
11663;SDS011;72375;59.302;18.204;2024-02-21T16:05:02;4.80;;;3.20;;
11663;SDS011;72375;59.302;18.204;2024-02-21T16:07:52;4.30;;;3.40;;
11663;SDS011;72375;59.302;18.204;2024-02-21T16:10:38;3.90;;;3.27;;
11663;SDS011;72375;59.302;18.204;2024-02-21T16:13:24;5.20;;;3.73;;
11663;SDS011;72375;59.302;18.204;2024-02-21T16:16:11;4.53;;;3.30;;
11663;SDS011;72375;59.302;18.204;2024-02-21T16:18:56;4.30;;;3.33;;
11663;SDS011;72375;59.302;18.204;2024-02-21T16:21:42;4.30;;;3.60;;
11663;SDS011;72375;59.302;18.204;2024-02-21T16:24:29;4.33;;;3.40;;
11663;SDS011;72375;59.302;18.204;2024-02-21T16:27:15;5.40;;;4.00;;